sensor_id;sensor_type;location;lat;lon;timestamp;P1;durP1;ratioP1;P2;durP2;ratioP2
9974;SDS011;5028;50.974;4.968;2023-08-06T00:00:56;1.30;;;1.20;;
9974;SDS011;5028;50.974;4.968;2023-08-06T00:03:26;3.13;;;1.50;;
9974;SDS011;5028;50.974;4.968;2023-08-06T00:05:55;4.37;;;1.60;;
9974;SDS011;5028;50.974;4.968;2023-08-06T00:08:23;2.93;;;1.50;;
9974;SDS011;5028;50.974;4.968;2023-08-06T00:10:52;3.80;;;1.30;;
9974;SDS011;5028;50.974;4.968;2023-08-06T00:13:21;3.03;;;1.27;;
9974;SDS011;5028;50.974;4.968;2023-08-06T00:15:50;2.00;;;1.30;;
9974;SDS011;5028;50.974;4.968;2023-08-06T00:18:19;3.13;;;1.30;;
9974;SDS011;5028;50.974;4.968;2023-08-06T00:20:49;3.17;;;1.30;;
9974;SDS011;5028;50.974;4.968;2023-08-06T00:23:18;2.50;;;1.53;;
9974;SDS011;5028;50.974;4.968;2023-08-06T00:25:48;2.53;;;1.40;;
9974;SDS011;5028;50.974;4.968;2023-08-06T00:28:18;2.13;;;1.37;;
9974;SDS011;5028;50.974;4.968;2023-08-06T00:30:51;2.40;;;1.40;;
9974;SDS011;5028;50.974;4.968;2023-08-06T00:33:20;1.37;;;1.10;;
9974;SDS011;5028;50.974;4.968;2023-08-06T00:35:51;2.10;;;1.20;;
9974;SDS011;5028;50.974;4.968;2023-08-06T00:38:20;1.30;;;1.20;;
9974;SDS011;5028;50.974;4.968;2023-08-06T00:40:49;1.73;;;1.30;;
9974;SDS011;5028;50.974;4.968;2023-08-06T00:43:17;2.03;;;1.17;;
9974;SDS011;5028;50.974;4.968;2023-08-06T00:45:46;2.77;;;1.20;;
9974;SDS011;5028;50.974;4.968;2023-08-06T00:48:15;1.43;;;1.07;;
9974;SDS011;5028;50.974;4.968;2023-08-06T00:50:45;2.13;;;1.30;;
9974;SDS011;5028;50.974;4.968;2023-08-06T00:53:15;2.50;;;1.03;;
9974;SDS011;5028;50.974;4.968;2023-08-06T00:55:44;1.93;;;1.07;;
9974;SDS011;5028;50.974;4.968;2023-08-06T00:58:13;1.30;;;0.93;;
9974;SDS011;5028;50.974;4.968;2023-08-06T01:00:44;1.77;;;1.10;;
9974;SDS011;5028;50.974;4.968;2023-08-06T01:03:13;2.03;;;0.90;;
9974;SDS011;5028;50.974;4.968;2023-08-06T01:05:42;1.73;;;0.90;;
9974;SDS011;5028;50.974;4.968;2023-08-06T01:08:15;2.37;;;1.00;;
9974;SDS011;5028;50.974;4.968;2023-08-06T01:10:57;1.63;;;1.10;;
9974;SDS011;5028;50.974;4.968;2023-08-06T01:13:37;2.00;;;1.13;;
9974;SDS011;5028;50.974;4.968;2023-08-06T01:16:14;1.40;;;0.90;;
9974;SDS011;5028;50.974;4.968;2023-08-06T01:18:43;1.30;;;1.03;;
9974;SDS011;5028;50.974;4.968;2023-08-06T01:21:17;1.70;;;0.90;;
9974;SDS011;5028;50.974;4.968;2023-08-06T01:23:46;1.23;;;1.00;;
9974;SDS011;5028;50.974;4.968;2023-08-06T01:26:18;1.70;;;1.00;;
9974;SDS011;5028;50.974;4.968;2023-08-06T01:28:55;2.00;;;1.20;;
9974;SDS011;5028;50.974;4.968;2023-08-06T01:31:30;1.47;;;1.10;;
9974;SDS011;5028;50.974;4.968;2023-08-06T01:33:59;1.40;;;0.90;;
9974;SDS011;5028;50.974;4.968;2023-08-06T01:36:32;2.10;;;1.07;;
9974;SDS011;5028;50.974;4.968;2023-08-06T01:39:04;2.03;;;1.00;;
9974;SDS011;5028;50.974;4.968;2023-08-06T01:41:33;2.87;;;1.27;;
9974;SDS011;5028;50.974;4.968;2023-08-06T01:44:01;1.87;;;1.00;;
9974;SDS011;5028;50.974;4.968;2023-08-06T01:46:30;1.80;;;1.13;;
9974;SDS011;5028;50.974;4.968;2023-08-06T01:48:59;2.50;;;1.00;;
9974;SDS011;5028;50.974;4.968;2023-08-06T01:51:28;1.90;;;1.10;;
9974;SDS011;5028;50.974;4.968;2023-08-06T01:53:58;2.03;;;1.30;;
9974;SDS011;5028;50.974;4.968;2023-08-06T01:56:27;4.50;;;1.30;;
9974;SDS011;5028;50.974;4.968;2023-08-06T01:58:56;4.30;;;1.20;;
9974;SDS011;5028;50.974;4.968;2023-08-06T02:01:28;2.50;;;1.30;;
9974;SDS011;5028;50.974;4.968;2023-08-06T02:03:57;3.50;;;1.43;;
9974;SDS011;5028;50.974;4.968;2023-08-06T02:06:31;3.13;;;1.30;;
9974;SDS011;5028;50.974;4.968;2023-08-06T02:09:02;3.93;;;1.30;;
9974;SDS011;5028;50.974;4.968;2023-08-06T02:11:33;1.80;;;1.30;;
9974;SDS011;5028;50.974;4.968;2023-08-06T02:14:02;3.63;;;1.30;;
9974;SDS011;5028;50.974;4.968;2023-08-06T02:16:31;1.57;;;1.30;;
9974;SDS011;5028;50.974;4.968;2023-08-06T02:19:00;2.93;;;1.27;;
9974;SDS011;5028;50.974;4.968;2023-08-06T02:21:28;2.33;;;1.53;;
9974;SDS011;5028;50.974;4.968;2023-08-06T02:23:57;2.50;;;1.57;;
9974;SDS011;5028;50.974;4.968;2023-08-06T02:26:27;2.67;;;1.50;;
9974;SDS011;5028;50.974;4.968;2023-08-06T02:28:56;1.60;;;1.30;;
9974;SDS011;5028;50.974;4.968;2023-08-06T02:31:24;1.43;;;1.30;;
9974;SDS011;5028;50.974;4.968;2023-08-06T02:33:54;3.50;;;1.70;;
9974;SDS011;5028;50.974;4.968;2023-08-06T02:36:23;1.57;;;1.47;;
9974;SDS011;5028;50.974;4.968;2023-08-06T02:38:55;2.23;;;1.90;;
9974;SDS011;5028;50.974;4.968;2023-08-06T02:41:24;3.07;;;2.40;;
9974;SDS011;5028;50.974;4.968;2023-08-06T02:43:54;4.50;;;2.77;;
9974;SDS011;5028;50.974;4.968;2023-08-06T02:46:23;3.67;;;2.60;;
9974;SDS011;5028;50.974;4.968;2023-08-06T02:48:52;3.90;;;2.60;;
9974;SDS011;5028;50.974;4.968;2023-08-06T02:51:20;4.70;;;2.90;;
9974;SDS011;5028;50.974;4.968;2023-08-06T02:53:49;5.10;;;2.80;;
9974;SDS011;5028;50.974;4.968;2023-08-06T02:56:18;4.50;;;2.87;;
9974;SDS011;5028;50.974;4.968;2023-08-06T02:58:47;4.00;;;2.90;;
9974;SDS011;5028;50.974;4.968;2023-08-06T03:01:18;4.40;;;3.20;;
9974;SDS011;5028;50.974;4.968;2023-08-06T03:03:46;5.57;;;3.70;;
9974;SDS011;5028;50.974;4.968;2023-08-06T03:06:16;4.43;;;2.97;;
9974;SDS011;5028;50.974;4.968;2023-08-06T03:08:44;5.03;;;3.33;;
9974;SDS011;5028;50.974;4.968;2023-08-06T03:11:12;3.57;;;3.27;;
9974;SDS011;5028;50.974;4.968;2023-08-06T03:13:41;6.00;;;3.67;;
9974;SDS011;5028;50.974;4.968;2023-08-06T03:16:10;6.83;;;3.50;;
9974;SDS011;5028;50.974;4.968;2023-08-06T03:18:40;4.07;;;3.17;;
9974;SDS011;5028;50.974;4.968;2023-08-06T03:21:09;5.33;;;3.30;;
9974;SDS011;5028;50.974;4.968;2023-08-06T03:23:38;5.20;;;3.53;;
9974;SDS011;5028;50.974;4.968;2023-08-06T03:26:08;4.43;;;3.40;;
9974;SDS011;5028;50.974;4.968;2023-08-06T03:28:37;3.87;;;3.47;;
9974;SDS011;5028;50.974;4.968;2023-08-06T03:31:07;7.13;;;3.87;;
9974;SDS011;5028;50.974;4.968;2023-08-06T03:33:36;4.50;;;3.63;;
9974;SDS011;5028;50.974;4.968;2023-08-06T03:36:06;5.00;;;4.23;;
9974;SDS011;5028;50.974;4.968;2023-08-06T03:38:35;4.47;;;4.03;;
9974;SDS011;5028;50.974;4.968;2023-08-06T03:41:04;5.60;;;3.90;;
9974;SDS011;5028;50.974;4.968;2023-08-06T03:43:33;4.67;;;4.10;;
9974;SDS011;5028;50.974;4.968;2023-08-06T03:46:02;6.30;;;4.30;;
9974;SDS011;5028;50.974;4.968;2023-08-06T03:48:30;4.70;;;4.30;;
9974;SDS011;5028;50.974;4.968;2023-08-06T03:50:59;5.17;;;4.20;;
9974;SDS011;5028;50.974;4.968;2023-08-06T03:53:30;5.97;;;4.10;;
9974;SDS011;5028;50.974;4.968;2023-08-06T03:55:59;3.07;;;2.43;;
9974;SDS011;5028;50.974;4.968;2023-08-06T03:58:28;5.50;;;2.80;;
9974;SDS011;5028;50.974;4.968;2023-08-06T04:00:57;4.10;;;3.20;;
9974;SDS011;5028;50.974;4.968;2023-08-06T04:03:27;4.50;;;3.30;;
9974;SDS011;5028;50.974;4.968;2023-08-06T04:05:56;3.83;;;3.20;;
9974;SDS011;5028;50.974;4.968;2023-08-06T04:08:25;4.03;;;3.40;;
9974;SDS011;5028;50.974;4.968;2023-08-06T04:10:56;5.07;;;3.47;;
9974;SDS011;5028;50.974;4.968;2023-08-06T04:13:24;4.27;;;3.60;;
9974;SDS011;5028;50.974;4.968;2023-08-06T04:15:53;4.30;;;3.33;;
9974;SDS011;5028;50.974;4.968;2023-08-06T04:18:22;3.80;;;3.50;;
9974;SDS011;5028;50.974;4.968;2023-08-06T04:20:51;3.70;;;3.40;;
9974;SDS011;5028;50.974;4.968;2023-08-06T04:23:21;4.77;;;3.63;;
9974;SDS011;5028;50.974;4.968;2023-08-06T04:25:51;4.53;;;3.30;;
9974;SDS011;5028;50.974;4.968;2023-08-06T04:28:21;6.27;;;3.90;;
9974;SDS011;5028;50.974;4.968;2023-08-06T04:30:50;5.30;;;4.10;;
9974;SDS011;5028;50.974;4.968;2023-08-06T04:33:20;4.30;;;3.90;;
9974;SDS011;5028;50.974;4.968;2023-08-06T04:35:53;7.00;;;3.83;;
9974;SDS011;5028;50.974;4.968;2023-08-06T04:38:23;5.93;;;3.90;;
9974;SDS011;5028;50.974;4.968;2023-08-06T04:40:52;4.63;;;3.50;;
9974;SDS011;5028;50.974;4.968;2023-08-06T04:43:25;3.67;;;3.37;;
9974;SDS011;5028;50.974;4.968;2023-08-06T04:45:54;3.73;;;3.30;;
9974;SDS011;5028;50.974;4.968;2023-08-06T04:48:23;4.20;;;3.00;;
9974;SDS011;5028;50.974;4.968;2023-08-06T04:50:52;3.43;;;2.73;;
9974;SDS011;5028;50.974;4.968;2023-08-06T04:53:21;4.23;;;3.30;;
9974;SDS011;5028;50.974;4.968;2023-08-06T04:55:50;5.70;;;3.50;;
9974;SDS011;5028;50.974;4.968;2023-08-06T04:58:18;3.73;;;3.00;;
9974;SDS011;5028;50.974;4.968;2023-08-06T05:00:49;4.40;;;2.70;;
9974;SDS011;5028;50.974;4.968;2023-08-06T05:03:17;2.67;;;2.47;;
9974;SDS011;5028;50.974;4.968;2023-08-06T05:05:46;2.90;;;1.90;;
9974;SDS011;5028;50.974;4.968;2023-08-06T05:08:14;2.07;;;1.87;;
9974;SDS011;5028;50.974;4.968;2023-08-06T05:10:45;2.23;;;1.77;;
9974;SDS011;5028;50.974;4.968;2023-08-06T05:13:14;1.10;;;1.10;;
9974;SDS011;5028;50.974;4.968;2023-08-06T05:15:43;1.30;;;1.00;;
9974;SDS011;5028;50.974;4.968;2023-08-06T05:18:14;2.17;;;1.30;;
9974;SDS011;5028;50.974;4.968;2023-08-06T05:20:43;1.80;;;1.43;;
9974;SDS011;5028;50.974;4.968;2023-08-06T05:23:12;2.70;;;1.60;;
9974;SDS011;5028;50.974;4.968;2023-08-06T05:25:41;3.87;;;2.33;;
9974;SDS011;5028;50.974;4.968;2023-08-06T05:28:10;3.63;;;2.23;;
9974;SDS011;5028;50.974;4.968;2023-08-06T05:30:39;0.90;;;0.90;;
9974;SDS011;5028;50.974;4.968;2023-08-06T05:33:09;0.90;;;0.90;;
9974;SDS011;5028;50.974;4.968;2023-08-06T05:35:40;1.40;;;0.90;;
9974;SDS011;5028;50.974;4.968;2023-08-06T05:38:09;1.10;;;1.00;;
9974;SDS011;5028;50.974;4.968;2023-08-06T05:40:37;0.97;;;0.97;;
9974;SDS011;5028;50.974;4.968;2023-08-06T05:43:06;1.50;;;1.40;;
9974;SDS011;5028;50.974;4.968;2023-08-06T05:45:35;1.60;;;1.50;;
9974;SDS011;5028;50.974;4.968;2023-08-06T05:48:04;3.10;;;1.80;;
9974;SDS011;5028;50.974;4.968;2023-08-06T05:50:33;3.00;;;2.10;;
9974;SDS011;5028;50.974;4.968;2023-08-06T05:53:03;4.93;;;2.27;;
9974;SDS011;5028;50.974;4.968;2023-08-06T05:55:32;3.67;;;2.70;;
9974;SDS011;5028;50.974;4.968;2023-08-06T05:58:02;2.73;;;2.30;;
9974;SDS011;5028;50.974;4.968;2023-08-06T06:00:31;3.30;;;3.00;;
9974;SDS011;5028;50.974;4.968;2023-08-06T06:03:01;4.00;;;2.90;;
9974;SDS011;5028;50.974;4.968;2023-08-06T06:05:31;5.60;;;3.40;;
9974;SDS011;5028;50.974;4.968;2023-08-06T06:08:00;4.20;;;2.23;;
9974;SDS011;5028;50.974;4.968;2023-08-06T06:10:30;4.37;;;3.47;;
9974;SDS011;5028;50.974;4.968;2023-08-06T06:12:59;2.53;;;1.97;;
9974;SDS011;5028;50.974;4.968;2023-08-06T06:15:28;2.07;;;1.83;;
9974;SDS011;5028;50.974;4.968;2023-08-06T06:17:57;3.77;;;2.50;;
9974;SDS011;5028;50.974;4.968;2023-08-06T06:20:27;3.17;;;2.03;;
9974;SDS011;5028;50.974;4.968;2023-08-06T06:22:55;4.03;;;1.80;;
9974;SDS011;5028;50.974;4.968;2023-08-06T06:25:24;2.33;;;1.60;;
9974;SDS011;5028;50.974;4.968;2023-08-06T06:27:55;4.50;;;2.30;;
9974;SDS011;5028;50.974;4.968;2023-08-06T06:30:25;2.90;;;2.33;;
9974;SDS011;5028;50.974;4.968;2023-08-06T06:32:55;4.07;;;2.33;;
9974;SDS011;5028;50.974;4.968;2023-08-06T06:35:24;3.70;;;2.00;;
9974;SDS011;5028;50.974;4.968;2023-08-06T06:37:55;5.37;;;2.40;;
9974;SDS011;5028;50.974;4.968;2023-08-06T06:40:24;4.13;;;1.90;;
9974;SDS011;5028;50.974;4.968;2023-08-06T06:42:53;4.13;;;2.00;;
9974;SDS011;5028;50.974;4.968;2023-08-06T06:45:23;5.30;;;2.20;;
9974;SDS011;5028;50.974;4.968;2023-08-06T06:47:52;4.00;;;2.33;;
9974;SDS011;5028;50.974;4.968;2023-08-06T06:50:21;2.67;;;1.30;;
9974;SDS011;5028;50.974;4.968;2023-08-06T06:52:50;3.50;;;2.00;;
9974;SDS011;5028;50.974;4.968;2023-08-06T06:55:19;2.23;;;1.40;;
9974;SDS011;5028;50.974;4.968;2023-08-06T06:57:48;3.97;;;2.30;;
9974;SDS011;5028;50.974;4.968;2023-08-06T07:00:18;3.27;;;2.00;;
9974;SDS011;5028;50.974;4.968;2023-08-06T07:02:47;4.47;;;1.63;;
9974;SDS011;5028;50.974;4.968;2023-08-06T07:05:17;3.33;;;2.00;;
9974;SDS011;5028;50.974;4.968;2023-08-06T07:07:46;4.07;;;1.60;;
9974;SDS011;5028;50.974;4.968;2023-08-06T07:10:14;4.07;;;2.13;;
9974;SDS011;5028;50.974;4.968;2023-08-06T07:12:44;3.67;;;2.20;;
9974;SDS011;5028;50.974;4.968;2023-08-06T07:15:14;3.97;;;2.30;;
9974;SDS011;5028;50.974;4.968;2023-08-06T07:17:45;4.90;;;2.40;;
9974;SDS011;5028;50.974;4.968;2023-08-06T07:20:15;5.93;;;2.40;;
9974;SDS011;5028;50.974;4.968;2023-08-06T07:22:43;4.23;;;1.90;;
9974;SDS011;5028;50.974;4.968;2023-08-06T07:25:12;5.97;;;2.27;;
9974;SDS011;5028;50.974;4.968;2023-08-06T07:27:41;4.27;;;2.50;;
9974;SDS011;5028;50.974;4.968;2023-08-06T07:30:11;5.73;;;2.70;;
9974;SDS011;5028;50.974;4.968;2023-08-06T07:32:40;4.33;;;2.47;;
9974;SDS011;5028;50.974;4.968;2023-08-06T07:35:10;5.80;;;2.90;;
9974;SDS011;5028;50.974;4.968;2023-08-06T07:37:39;6.83;;;3.40;;
9974;SDS011;5028;50.974;4.968;2023-08-06T07:40:08;9.50;;;3.40;;
9974;SDS011;5028;50.974;4.968;2023-08-06T07:42:38;9.37;;;3.50;;
9974;SDS011;5028;50.974;4.968;2023-08-06T07:45:07;10.30;;;4.03;;
9974;SDS011;5028;50.974;4.968;2023-08-06T07:47:38;6.70;;;3.60;;
9974;SDS011;5028;50.974;4.968;2023-08-06T07:50:11;7.63;;;3.40;;
9974;SDS011;5028;50.974;4.968;2023-08-06T07:52:40;7.90;;;3.53;;
9974;SDS011;5028;50.974;4.968;2023-08-06T07:55:09;8.97;;;3.43;;
9974;SDS011;5028;50.974;4.968;2023-08-06T07:57:38;8.97;;;3.53;;
9974;SDS011;5028;50.974;4.968;2023-08-06T08:00:07;6.00;;;3.30;;
9974;SDS011;5028;50.974;4.968;2023-08-06T08:02:37;5.43;;;3.00;;
9974;SDS011;5028;50.974;4.968;2023-08-06T08:05:06;6.47;;;2.90;;
9974;SDS011;5028;50.974;4.968;2023-08-06T08:07:36;11.07;;;3.00;;
9974;SDS011;5028;50.974;4.968;2023-08-06T08:10:08;7.17;;;2.77;;
9974;SDS011;5028;50.974;4.968;2023-08-06T08:12:37;9.10;;;3.13;;
9974;SDS011;5028;50.974;4.968;2023-08-06T08:15:06;4.77;;;2.27;;
9974;SDS011;5028;50.974;4.968;2023-08-06T08:17:35;8.47;;;2.80;;
9974;SDS011;5028;50.974;4.968;2023-08-06T08:20:04;6.17;;;2.23;;
9974;SDS011;5028;50.974;4.968;2023-08-06T08:22:34;9.87;;;2.60;;
9974;SDS011;5028;50.974;4.968;2023-08-06T08:25:04;6.23;;;2.13;;
9974;SDS011;5028;50.974;4.968;2023-08-06T08:27:33;9.30;;;2.27;;
9974;SDS011;5028;50.974;4.968;2023-08-06T08:30:02;7.57;;;2.40;;
9974;SDS011;5028;50.974;4.968;2023-08-06T08:32:33;6.47;;;2.27;;
9974;SDS011;5028;50.974;4.968;2023-08-06T08:35:03;7.27;;;2.30;;
9974;SDS011;5028;50.974;4.968;2023-08-06T08:37:35;8.37;;;2.20;;
9974;SDS011;5028;50.974;4.968;2023-08-06T08:40:07;7.93;;;1.90;;
9974;SDS011;5028;50.974;4.968;2023-08-06T08:42:37;7.83;;;2.07;;
9974;SDS011;5028;50.974;4.968;2023-08-06T08:45:07;8.77;;;2.90;;
9974;SDS011;5028;50.974;4.968;2023-08-06T08:47:40;8.53;;;2.10;;
9974;SDS011;5028;50.974;4.968;2023-08-06T08:50:10;8.13;;;2.30;;
9974;SDS011;5028;50.974;4.968;2023-08-06T08:52:39;14.47;;;2.40;;
9974;SDS011;5028;50.974;4.968;2023-08-06T08:55:10;8.37;;;2.37;;
9974;SDS011;5028;50.974;4.968;2023-08-06T08:57:42;7.50;;;2.00;;
9974;SDS011;5028;50.974;4.968;2023-08-06T09:00:12;10.30;;;2.50;;
9974;SDS011;5028;50.974;4.968;2023-08-06T09:02:42;8.23;;;2.40;;
9974;SDS011;5028;50.974;4.968;2023-08-06T09:05:13;6.93;;;1.70;;
9974;SDS011;5028;50.974;4.968;2023-08-06T09:07:45;8.37;;;2.10;;
9974;SDS011;5028;50.974;4.968;2023-08-06T09:10:19;6.83;;;1.70;;
9974;SDS011;5028;50.974;4.968;2023-08-06T09:12:50;7.60;;;1.80;;
9974;SDS011;5028;50.974;4.968;2023-08-06T09:15:23;7.30;;;2.00;;
9974;SDS011;5028;50.974;4.968;2023-08-06T09:17:53;8.60;;;2.07;;
9974;SDS011;5028;50.974;4.968;2023-08-06T09:20:23;6.50;;;1.80;;
9974;SDS011;5028;50.974;4.968;2023-08-06T09:22:52;5.00;;;1.90;;
9974;SDS011;5028;50.974;4.968;2023-08-06T09:25:23;9.17;;;2.00;;
9974;SDS011;5028;50.974;4.968;2023-08-06T09:27:53;6.07;;;2.03;;
9974;SDS011;5028;50.974;4.968;2023-08-06T09:30:28;4.93;;;1.50;;
9974;SDS011;5028;50.974;4.968;2023-08-06T09:33:00;4.50;;;1.40;;
9974;SDS011;5028;50.974;4.968;2023-08-06T09:35:30;8.90;;;1.70;;
9974;SDS011;5028;50.974;4.968;2023-08-06T09:38:05;7.60;;;1.73;;
9974;SDS011;5028;50.974;4.968;2023-08-06T09:40:36;2.97;;;1.30;;
9974;SDS011;5028;50.974;4.968;2023-08-06T09:43:07;6.10;;;1.73;;
9974;SDS011;5028;50.974;4.968;2023-08-06T09:45:36;4.43;;;1.70;;
9974;SDS011;5028;50.974;4.968;2023-08-06T09:48:06;4.13;;;1.30;;
9974;SDS011;5028;50.974;4.968;2023-08-06T09:50:36;4.03;;;1.90;;
9974;SDS011;5028;50.974;4.968;2023-08-06T09:53:06;6.40;;;2.03;;
9974;SDS011;5028;50.974;4.968;2023-08-06T09:55:37;8.33;;;1.73;;
9974;SDS011;5028;50.974;4.968;2023-08-06T09:58:06;7.40;;;1.73;;
9974;SDS011;5028;50.974;4.968;2023-08-06T10:00:35;6.47;;;1.70;;
9974;SDS011;5028;50.974;4.968;2023-08-06T10:03:05;5.23;;;2.00;;
9974;SDS011;5028;50.974;4.968;2023-08-06T10:05:36;8.77;;;2.27;;
9974;SDS011;5028;50.974;4.968;2023-08-06T10:08:06;6.53;;;1.80;;
9974;SDS011;5028;50.974;4.968;2023-08-06T10:10:38;5.37;;;1.67;;
9974;SDS011;5028;50.974;4.968;2023-08-06T10:13:07;5.43;;;1.93;;
9974;SDS011;5028;50.974;4.968;2023-08-06T10:15:37;3.27;;;1.40;;
9974;SDS011;5028;50.974;4.968;2023-08-06T10:18:07;3.10;;;1.17;;
9974;SDS011;5028;50.974;4.968;2023-08-06T10:20:39;3.27;;;1.17;;
9974;SDS011;5028;50.974;4.968;2023-08-06T10:23:07;2.90;;;1.53;;
9974;SDS011;5028;50.974;4.968;2023-08-06T10:25:41;3.70;;;1.37;;
9974;SDS011;5028;50.974;4.968;2023-08-06T10:28:11;2.33;;;0.80;;
9974;SDS011;5028;50.974;4.968;2023-08-06T10:30:43;3.40;;;1.10;;
9974;SDS011;5028;50.974;4.968;2023-08-06T10:33:13;3.70;;;0.90;;
9974;SDS011;5028;50.974;4.968;2023-08-06T10:35:44;5.50;;;1.27;;
9974;SDS011;5028;50.974;4.968;2023-08-06T10:38:16;4.20;;;1.17;;
9974;SDS011;5028;50.974;4.968;2023-08-06T10:41:00;3.03;;;1.20;;
9974;SDS011;5028;50.974;4.968;2023-08-06T10:43:31;2.73;;;1.03;;
9974;SDS011;5028;50.974;4.968;2023-08-06T10:46:02;5.23;;;1.60;;
9974;SDS011;5028;50.974;4.968;2023-08-06T10:48:33;3.47;;;1.07;;
9974;SDS011;5028;50.974;4.968;2023-08-06T10:51:08;4.03;;;1.23;;
9974;SDS011;5028;50.974;4.968;2023-08-06T10:53:41;3.67;;;1.10;;
9974;SDS011;5028;50.974;4.968;2023-08-06T10:56:16;5.13;;;1.40;;
9974;SDS011;5028;50.974;4.968;2023-08-06T10:58:46;3.90;;;1.20;;
9974;SDS011;5028;50.974;4.968;2023-08-06T11:01:15;5.00;;;1.47;;
9974;SDS011;5028;50.974;4.968;2023-08-06T11:03:45;3.10;;;1.17;;
9974;SDS011;5028;50.974;4.968;2023-08-06T11:06:17;6.77;;;1.47;;
9974;SDS011;5028;50.974;4.968;2023-08-06T11:08:47;6.07;;;1.33;;
9974;SDS011;5028;50.974;4.968;2023-08-06T11:11:18;6.40;;;1.70;;
9974;SDS011;5028;50.974;4.968;2023-08-06T11:13:48;6.63;;;1.60;;
9974;SDS011;5028;50.974;4.968;2023-08-06T11:16:18;5.33;;;1.70;;
9974;SDS011;5028;50.974;4.968;2023-08-06T11:18:48;3.23;;;1.13;;
9974;SDS011;5028;50.974;4.968;2023-08-06T11:21:18;3.83;;;1.50;;
9974;SDS011;5028;50.974;4.968;2023-08-06T11:23:48;4.53;;;1.60;;
9974;SDS011;5028;50.974;4.968;2023-08-06T11:26:20;3.20;;;1.30;;
9974;SDS011;5028;50.974;4.968;2023-08-06T11:28:50;4.83;;;1.53;;
9974;SDS011;5028;50.974;4.968;2023-08-06T11:31:19;2.93;;;1.03;;
9974;SDS011;5028;50.974;4.968;2023-08-06T11:33:49;4.67;;;1.40;;
9974;SDS011;5028;50.974;4.968;2023-08-06T11:36:28;5.03;;;1.20;;
9974;SDS011;5028;50.974;4.968;2023-08-06T11:38:58;3.53;;;1.00;;
9974;SDS011;5028;50.974;4.968;2023-08-06T11:41:29;3.20;;;1.20;;
9974;SDS011;5028;50.974;4.968;2023-08-06T11:43:58;2.87;;;1.20;;
9974;SDS011;5028;50.974;4.968;2023-08-06T11:46:27;4.87;;;1.20;;
9974;SDS011;5028;50.974;4.968;2023-08-06T11:48:58;5.03;;;1.37;;
9974;SDS011;5028;50.974;4.968;2023-08-06T11:51:27;3.67;;;1.10;;
9974;SDS011;5028;50.974;4.968;2023-08-06T11:53:56;2.20;;;1.00;;
9974;SDS011;5028;50.974;4.968;2023-08-06T11:56:28;3.77;;;1.17;;
9974;SDS011;5028;50.974;4.968;2023-08-06T11:58:57;2.57;;;1.20;;
9974;SDS011;5028;50.974;4.968;2023-08-06T12:01:26;3.40;;;1.30;;
9974;SDS011;5028;50.974;4.968;2023-08-06T12:03:58;3.63;;;1.47;;
9974;SDS011;5028;50.974;4.968;2023-08-06T12:06:27;2.03;;;1.10;;
9974;SDS011;5028;50.974;4.968;2023-08-06T12:08:56;3.57;;;1.10;;
9974;SDS011;5028;50.974;4.968;2023-08-06T12:11:26;5.10;;;1.67;;
9974;SDS011;5028;50.974;4.968;2023-08-06T12:14:01;4.27;;;1.70;;
9974;SDS011;5028;50.974;4.968;2023-08-06T12:16:30;3.77;;;1.20;;
9974;SDS011;5028;50.974;4.968;2023-08-06T12:19:01;2.63;;;0.90;;
9974;SDS011;5028;50.974;4.968;2023-08-06T12:21:31;5.47;;;1.60;;
9974;SDS011;5028;50.974;4.968;2023-08-06T12:24:00;5.27;;;1.60;;
9974;SDS011;5028;50.974;4.968;2023-08-06T12:26:29;6.17;;;1.40;;
9974;SDS011;5028;50.974;4.968;2023-08-06T12:28:59;5.77;;;1.70;;
9974;SDS011;5028;50.974;4.968;2023-08-06T12:31:28;5.80;;;1.73;;
9974;SDS011;5028;50.974;4.968;2023-08-06T12:33:57;5.40;;;1.97;;
9974;SDS011;5028;50.974;4.968;2023-08-06T12:36:26;6.23;;;1.60;;
9974;SDS011;5028;50.974;4.968;2023-08-06T12:38:55;5.17;;;1.20;;
9974;SDS011;5028;50.974;4.968;2023-08-06T12:41:24;4.97;;;1.37;;
9974;SDS011;5028;50.974;4.968;2023-08-06T12:43:54;3.47;;;1.50;;
9974;SDS011;5028;50.974;4.968;2023-08-06T12:46:24;2.47;;;1.23;;
9974;SDS011;5028;50.974;4.968;2023-08-06T12:48:56;4.93;;;1.27;;
9974;SDS011;5028;50.974;4.968;2023-08-06T12:51:25;3.73;;;1.67;;
9974;SDS011;5028;50.974;4.968;2023-08-06T12:53:55;4.70;;;1.67;;
9974;SDS011;5028;50.974;4.968;2023-08-06T12:56:23;6.13;;;1.80;;
9974;SDS011;5028;50.974;4.968;2023-08-06T12:58:52;2.77;;;1.43;;
9974;SDS011;5028;50.974;4.968;2023-08-06T13:01:24;3.50;;;1.47;;
9974;SDS011;5028;50.974;4.968;2023-08-06T13:03:53;4.33;;;1.50;;
9974;SDS011;5028;50.974;4.968;2023-08-06T13:06:43;5.93;;;1.77;;
9974;SDS011;5028;50.974;4.968;2023-08-06T13:09:12;3.83;;;1.63;;
9974;SDS011;5028;50.974;4.968;2023-08-06T13:11:41;5.07;;;1.67;;
9974;SDS011;5028;50.974;4.968;2023-08-06T13:14:13;5.67;;;1.80;;
9974;SDS011;5028;50.974;4.968;2023-08-06T13:16:45;4.50;;;1.90;;
9974;SDS011;5028;50.974;4.968;2023-08-06T13:19:14;5.87;;;2.13;;
9974;SDS011;5028;50.974;4.968;2023-08-06T13:21:58;5.97;;;1.87;;
9974;SDS011;5028;50.974;4.968;2023-08-06T13:24:33;5.37;;;1.97;;
9974;SDS011;5028;50.974;4.968;2023-08-06T13:27:04;8.27;;;2.03;;
9974;SDS011;5028;50.974;4.968;2023-08-06T13:29:33;6.17;;;1.90;;
9974;SDS011;5028;50.974;4.968;2023-08-06T13:32:04;5.50;;;1.80;;
9974;SDS011;5028;50.974;4.968;2023-08-06T13:34:33;4.97;;;1.67;;
9974;SDS011;5028;50.974;4.968;2023-08-06T13:37:04;5.63;;;1.90;;
9974;SDS011;5028;50.974;4.968;2023-08-06T13:39:33;5.80;;;1.80;;
9974;SDS011;5028;50.974;4.968;2023-08-06T13:42:01;4.50;;;1.70;;
9974;SDS011;5028;50.974;4.968;2023-08-06T13:44:30;5.30;;;1.50;;
9974;SDS011;5028;50.974;4.968;2023-08-06T13:47:04;6.03;;;1.80;;
9974;SDS011;5028;50.974;4.968;2023-08-06T13:49:33;5.93;;;1.57;;
9974;SDS011;5028;50.974;4.968;2023-08-06T13:52:04;4.27;;;1.33;;
9974;SDS011;5028;50.974;4.968;2023-08-06T13:54:47;5.63;;;1.50;;
9974;SDS011;5028;50.974;4.968;2023-08-06T13:57:16;4.67;;;1.20;;
9974;SDS011;5028;50.974;4.968;2023-08-06T13:59:45;2.50;;;1.23;;
9974;SDS011;5028;50.974;4.968;2023-08-06T14:02:16;4.20;;;1.23;;
9974;SDS011;5028;50.974;4.968;2023-08-06T14:04:45;3.67;;;1.27;;
9974;SDS011;5028;50.974;4.968;2023-08-06T14:07:14;2.27;;;1.13;;
9974;SDS011;5028;50.974;4.968;2023-08-06T14:09:42;3.57;;;1.30;;
9974;SDS011;5028;50.974;4.968;2023-08-06T14:12:12;3.37;;;1.00;;
9974;SDS011;5028;50.974;4.968;2023-08-06T14:14:41;1.97;;;0.90;;
9974;SDS011;5028;50.974;4.968;2023-08-06T14:17:10;3.53;;;1.17;;
9974;SDS011;5028;50.974;4.968;2023-08-06T14:19:40;3.37;;;1.20;;
9974;SDS011;5028;50.974;4.968;2023-08-06T14:22:09;7.17;;;1.33;;
9974;SDS011;5028;50.974;4.968;2023-08-06T14:24:38;3.40;;;1.13;;
9974;SDS011;5028;50.974;4.968;2023-08-06T14:27:08;2.97;;;1.20;;
9974;SDS011;5028;50.974;4.968;2023-08-06T14:29:36;3.13;;;1.40;;
9974;SDS011;5028;50.974;4.968;2023-08-06T14:32:06;3.37;;;1.63;;
9974;SDS011;5028;50.974;4.968;2023-08-06T14:34:35;5.60;;;1.73;;
9974;SDS011;5028;50.974;4.968;2023-08-06T14:37:05;4.30;;;1.37;;
9974;SDS011;5028;50.974;4.968;2023-08-06T14:39:34;2.10;;;1.07;;
9974;SDS011;5028;50.974;4.968;2023-08-06T14:42:04;2.67;;;1.27;;
9974;SDS011;5028;50.974;4.968;2023-08-06T14:44:33;5.13;;;1.00;;
9974;SDS011;5028;50.974;4.968;2023-08-06T14:47:02;2.37;;;1.20;;
9974;SDS011;5028;50.974;4.968;2023-08-06T14:49:31;3.30;;;0.90;;
9974;SDS011;5028;50.974;4.968;2023-08-06T14:52:00;4.57;;;1.13;;
9974;SDS011;5028;50.974;4.968;2023-08-06T14:54:31;4.27;;;1.63;;
9974;SDS011;5028;50.974;4.968;2023-08-06T14:57:00;3.67;;;1.37;;
9974;SDS011;5028;50.974;4.968;2023-08-06T14:59:29;5.50;;;1.27;;
9974;SDS011;5028;50.974;4.968;2023-08-06T15:01:59;5.80;;;1.50;;
9974;SDS011;5028;50.974;4.968;2023-08-06T15:04:27;4.83;;;1.47;;
9974;SDS011;5028;50.974;4.968;2023-08-06T15:06:56;3.70;;;1.43;;
9974;SDS011;5028;50.974;4.968;2023-08-06T15:09:25;6.83;;;1.83;;
9974;SDS011;5028;50.974;4.968;2023-08-06T15:11:56;5.10;;;1.60;;
9974;SDS011;5028;50.974;4.968;2023-08-06T15:14:24;3.67;;;1.07;;
9974;SDS011;5028;50.974;4.968;2023-08-06T15:16:53;4.67;;;1.70;;
9974;SDS011;5028;50.974;4.968;2023-08-06T15:19:23;5.27;;;1.90;;
9974;SDS011;5028;50.974;4.968;2023-08-06T15:21:52;3.37;;;1.30;;
9974;SDS011;5028;50.974;4.968;2023-08-06T15:24:21;6.37;;;1.70;;
9974;SDS011;5028;50.974;4.968;2023-08-06T15:26:50;5.53;;;1.57;;
9974;SDS011;5028;50.974;4.968;2023-08-06T15:29:21;5.03;;;1.40;;
9974;SDS011;5028;50.974;4.968;2023-08-06T15:31:50;5.67;;;1.67;;